sensor_id;sensor_type;location;lat;lon;timestamp;P1;durP1;ratioP1;P2;durP2;ratioP2
23046;SDS011;11691;51.462;6.902;2022-09-03T00:01:41;2.72;;;1.05;;
23046;SDS011;11691;51.462;6.902;2022-09-03T00:04:52;1.95;;;1.05;;
23046;SDS011;11691;51.462;6.902;2022-09-03T00:07:22;2.53;;;1.33;;
23046;SDS011;11691;51.462;6.902;2022-09-03T00:09:58;4.78;;;1.30;;
23046;SDS011;11691;51.462;6.902;2022-09-03T00:12:28;3.72;;;1.73;;
23046;SDS011;11691;51.462;6.902;2022-09-03T00:14:59;4.20;;;1.08;;
23046;SDS011;11691;51.462;6.902;2022-09-03T00:17:28;2.33;;;1.10;;
23046;SDS011;11691;51.462;6.902;2022-09-03T00:22:42;2.95;;;1.45;;
23046;SDS011;11691;51.462;6.902;2022-09-03T00:25:14;2.40;;;1.35;;
23046;SDS011;11691;51.462;6.902;2022-09-03T00:27:42;2.40;;;1.48;;
23046;SDS011;11691;51.462;6.902;2022-09-03T00:30:11;3.22;;;1.40;;
23046;SDS011;11691;51.462;6.902;2022-09-03T00:35:06;2.40;;;1.48;;
23046;SDS011;11691;51.462;6.902;2022-09-03T00:37:39;2.75;;;1.50;;
23046;SDS011;11691;51.462;6.902;2022-09-03T00:40:06;2.40;;;1.20;;
23046;SDS011;11691;51.462;6.902;2022-09-03T00:42:44;4.45;;;1.35;;
23046;SDS011;11691;51.462;6.902;2022-09-03T00:46:11;2.00;;;1.30;;
23046;SDS011;11691;51.462;6.902;2022-09-03T00:48:39;1.48;;;1.33;;
23046;SDS011;11691;51.462;6.902;2022-09-03T00:51:20;2.55;;;1.48;;
23046;SDS011;11691;51.462;6.902;2022-09-03T00:53:56;4.03;;;1.30;;
23046;SDS011;11691;51.462;6.902;2022-09-03T00:56:45;2.05;;;1.20;;
23046;SDS011;11691;51.462;6.902;2022-09-03T01:02:15;2.17;;;1.08;;
23046;SDS011;11691;51.462;6.902;2022-09-03T01:12:32;2.55;;;1.30;;
23046;SDS011;11691;51.462;6.902;2022-09-03T01:31:43;2.65;;;1.30;;
23046;SDS011;11691;51.462;6.902;2022-09-03T01:33:46;2.17;;;1.17;;
23046;SDS011;11691;51.462;6.902;2022-09-03T01:36:24;1.88;;;1.20;;
23046;SDS011;11691;51.462;6.902;2022-09-03T01:39:01;3.63;;;1.00;;
23046;SDS011;11691;51.462;6.902;2022-09-03T01:49:53;2.25;;;1.30;;
23046;SDS011;11691;51.462;6.902;2022-09-03T01:52:35;1.92;;;1.02;;
23046;SDS011;11691;51.462;6.902;2022-09-03T01:55:19;3.03;;;0.90;;
23046;SDS011;11691;51.462;6.902;2022-09-03T01:58:25;1.20;;;0.93;;
23046;SDS011;11691;51.462;6.902;2022-09-03T02:00:43;1.48;;;1.27;;
23046;SDS011;11691;51.462;6.902;2022-09-03T02:03:11;4.57;;;1.25;;
23046;SDS011;11691;51.462;6.902;2022-09-03T02:05:38;2.47;;;1.10;;
23046;SDS011;11691;51.462;6.902;2022-09-03T02:08:07;1.85;;;1.00;;
23046;SDS011;11691;51.462;6.902;2022-09-03T02:10:38;2.58;;;1.35;;
23046;SDS011;11691;51.462;6.902;2022-09-03T02:13:09;2.30;;;1.10;;
23046;SDS011;11691;51.462;6.902;2022-09-03T02:15:45;1.98;;;1.25;;
23046;SDS011;11691;51.462;6.902;2022-09-03T02:18:22;1.70;;;1.05;;
23046;SDS011;11691;51.462;6.902;2022-09-03T02:20:49;1.80;;;1.10;;
23046;SDS011;11691;51.462;6.902;2022-09-03T02:23:17;1.42;;;1.10;;
23046;SDS011;11691;51.462;6.902;2022-09-03T02:25:44;1.80;;;1.13;;
23046;SDS011;11691;51.462;6.902;2022-09-03T02:28:11;2.50;;;1.23;;
23046;SDS011;11691;51.462;6.902;2022-09-03T02:30:39;2.28;;;1.27;;
23046;SDS011;11691;51.462;6.902;2022-09-03T02:33:05;2.05;;;1.20;;
23046;SDS011;11691;51.462;6.902;2022-09-03T02:35:31;2.47;;;1.10;;
23046;SDS011;11691;51.462;6.902;2022-09-03T02:38:07;2.58;;;1.20;;
23046;SDS011;11691;51.462;6.902;2022-09-03T02:40:33;1.85;;;1.20;;
23046;SDS011;11691;51.462;6.902;2022-09-03T02:42:59;1.42;;;1.10;;
23046;SDS011;11691;51.462;6.902;2022-09-03T02:45:28;2.50;;;1.13;;
23046;SDS011;11691;51.462;6.902;2022-09-03T02:47:56;1.50;;;1.20;;
23046;SDS011;11691;51.462;6.902;2022-09-03T02:50:23;1.75;;;1.30;;
23046;SDS011;11691;51.462;6.902;2022-09-03T02:52:50;1.65;;;1.20;;
23046;SDS011;11691;51.462;6.902;2022-09-03T02:55:16;1.25;;;0.98;;
23046;SDS011;11691;51.462;6.902;2022-09-03T02:57:43;1.35;;;1.00;;
23046;SDS011;11691;51.462;6.902;2022-09-03T03:00:10;1.92;;;1.20;;
23046;SDS011;11691;51.462;6.902;2022-09-03T03:02:36;2.75;;;1.88;;
23046;SDS011;11691;51.462;6.902;2022-09-03T03:05:02;2.65;;;1.10;;
23046;SDS011;11691;51.462;6.902;2022-09-03T03:07:31;2.38;;;1.40;;
23046;SDS011;11691;51.462;6.902;2022-09-03T03:10:01;2.38;;;0.98;;
23046;SDS011;11691;51.462;6.902;2022-09-03T03:12:26;2.60;;;1.20;;
23046;SDS011;11691;51.462;6.902;2022-09-03T03:14:52;1.92;;;1.30;;
23046;SDS011;11691;51.462;6.902;2022-09-03T03:17:18;2.20;;;1.10;;
23046;SDS011;11691;51.462;6.902;2022-09-03T03:19:44;1.85;;;1.25;;
23046;SDS011;11691;51.462;6.902;2022-09-03T03:22:10;1.50;;;1.40;;
23046;SDS011;11691;51.462;6.902;2022-09-03T03:24:36;2.17;;;1.15;;
23046;SDS011;11691;51.462;6.902;2022-09-03T03:27:02;1.38;;;1.13;;
23046;SDS011;11691;51.462;6.902;2022-09-03T03:29:32;4.90;;;1.30;;
23046;SDS011;11691;51.462;6.902;2022-09-03T03:31:57;3.08;;;1.10;;
23046;SDS011;11691;51.462;6.902;2022-09-03T03:34:24;1.80;;;1.30;;
23046;SDS011;11691;51.462;6.902;2022-09-03T03:36:49;2.15;;;1.17;;
23046;SDS011;11691;51.462;6.902;2022-09-03T03:39:15;4.00;;;1.52;;
23046;SDS011;11691;51.462;6.902;2022-09-03T03:41:41;3.22;;;1.40;;
23046;SDS011;11691;51.462;6.902;2022-09-03T03:44:07;1.48;;;1.30;;
23046;SDS011;11691;51.462;6.902;2022-09-03T03:46:35;4.05;;;1.40;;
23046;SDS011;11691;51.462;6.902;2022-09-03T03:49:01;2.40;;;1.25;;
23046;SDS011;11691;51.462;6.902;2022-09-03T03:51:27;2.70;;;1.20;;
23046;SDS011;11691;51.462;6.902;2022-09-03T03:53:54;1.60;;;1.20;;
23046;SDS011;11691;51.462;6.902;2022-09-03T03:56:21;2.05;;;1.25;;
23046;SDS011;11691;51.462;6.902;2022-09-03T03:58:48;2.25;;;1.45;;
23046;SDS011;11691;51.462;6.902;2022-09-03T04:01:18;1.75;;;1.35;;
23046;SDS011;11691;51.462;6.902;2022-09-03T04:03:48;1.75;;;1.30;;
23046;SDS011;11691;51.462;6.902;2022-09-03T04:06:15;3.33;;;1.38;;
23046;SDS011;11691;51.462;6.902;2022-09-03T04:08:42;2.17;;;1.40;;
23046;SDS011;11691;51.462;6.902;2022-09-03T04:11:10;3.35;;;1.00;;
23046;SDS011;11691;51.462;6.902;2022-09-03T04:13:38;3.42;;;1.27;;
23046;SDS011;11691;51.462;6.902;2022-09-03T04:18:35;1.85;;;1.10;;
23046;SDS011;11691;51.462;6.902;2022-09-03T04:21:11;3.10;;;1.52;;
23046;SDS011;11691;51.462;6.902;2022-09-03T04:23:38;2.83;;;1.52;;
23046;SDS011;11691;51.462;6.902;2022-09-03T04:26:06;1.70;;;1.30;;
23046;SDS011;11691;51.462;6.902;2022-09-03T04:28:33;4.10;;;1.50;;
23046;SDS011;11691;51.462;6.902;2022-09-03T04:31:00;5.68;;;1.40;;
23046;SDS011;11691;51.462;6.902;2022-09-03T04:33:26;2.08;;;1.30;;
23046;SDS011;11691;51.462;6.902;2022-09-03T04:35:52;1.38;;;1.27;;
23046;SDS011;11691;51.462;6.902;2022-09-03T04:38:18;1.55;;;1.13;;
23046;SDS011;11691;51.462;6.902;2022-09-03T04:40:50;1.60;;;1.48;;
23046;SDS011;11691;51.462;6.902;2022-09-03T04:43:16;2.85;;;1.30;;
23046;SDS011;11691;51.462;6.902;2022-09-03T04:45:42;2.95;;;1.30;;
23046;SDS011;11691;51.462;6.902;2022-09-03T04:48:08;4.43;;;1.48;;
23046;SDS011;11691;51.462;6.902;2022-09-03T04:50:35;2.05;;;1.40;;
23046;SDS011;11691;51.462;6.902;2022-09-03T04:53:02;1.80;;;1.30;;
23046;SDS011;11691;51.462;6.902;2022-09-03T04:55:35;2.50;;;1.70;;
23046;SDS011;11691;51.462;6.902;2022-09-03T04:58:01;2.13;;;1.27;;
23046;SDS011;11691;51.462;6.902;2022-09-03T05:00:27;1.83;;;1.40;;
23046;SDS011;11691;51.462;6.902;2022-09-03T05:02:53;4.40;;;1.30;;
23046;SDS011;11691;51.462;6.902;2022-09-03T05:05:19;3.17;;;1.35;;
23046;SDS011;11691;51.462;6.902;2022-09-03T05:07:45;1.92;;;1.40;;
23046;SDS011;11691;51.462;6.902;2022-09-03T05:10:11;4.13;;;1.20;;
23046;SDS011;11691;51.462;6.902;2022-09-03T05:12:44;1.98;;;1.40;;
23046;SDS011;11691;51.462;6.902;2022-09-03T05:15:11;1.83;;;1.40;;
23046;SDS011;11691;51.462;6.902;2022-09-03T05:17:37;4.55;;;1.55;;
23046;SDS011;11691;51.462;6.902;2022-09-03T05:20:03;3.20;;;1.30;;
23046;SDS011;11691;51.462;6.902;2022-09-03T05:22:32;5.55;;;1.60;;
23046;SDS011;11691;51.462;6.902;2022-09-03T05:24:58;2.60;;;1.55;;
23046;SDS011;11691;51.462;6.902;2022-09-03T05:27:24;1.90;;;1.20;;
23046;SDS011;11691;51.462;6.902;2022-09-03T05:29:50;2.63;;;1.60;;
23046;SDS011;11691;51.462;6.902;2022-09-03T05:32:16;1.70;;;1.30;;
23046;SDS011;11691;51.462;6.902;2022-09-03T05:34:42;4.60;;;1.83;;
23046;SDS011;11691;51.462;6.902;2022-09-03T05:37:09;3.75;;;1.45;;
23046;SDS011;11691;51.462;6.902;2022-09-03T05:39:36;3.92;;;1.48;;
23046;SDS011;11691;51.462;6.902;2022-09-03T05:42:02;4.22;;;1.88;;
23046;SDS011;11691;51.462;6.902;2022-09-03T05:44:28;3.50;;;1.42;;
23046;SDS011;11691;51.462;6.902;2022-09-03T05:46:54;2.97;;;1.60;;
23046;SDS011;11691;51.462;6.902;2022-09-03T05:49:20;2.00;;;1.30;;
23046;SDS011;11691;51.462;6.902;2022-09-03T05:51:46;3.67;;;1.65;;
23046;SDS011;11691;51.462;6.902;2022-09-03T05:54:12;4.50;;;1.38;;
23046;SDS011;11691;51.462;6.902;2022-09-03T05:56:38;2.42;;;1.17;;
23046;SDS011;11691;51.462;6.902;2022-09-03T05:59:06;3.90;;;1.40;;
23046;SDS011;11691;51.462;6.902;2022-09-03T06:01:37;3.42;;;1.38;;
23046;SDS011;11691;51.462;6.902;2022-09-03T06:04:04;3.20;;;1.40;;
23046;SDS011;11691;51.462;6.902;2022-09-03T06:06:32;6.13;;;1.35;;
23046;SDS011;11691;51.462;6.902;2022-09-03T06:08:59;4.00;;;1.70;;
23046;SDS011;11691;51.462;6.902;2022-09-03T06:11:26;3.67;;;1.80;;
23046;SDS011;11691;51.462;6.902;2022-09-03T06:13:56;2.85;;;1.95;;
23046;SDS011;11691;51.462;6.902;2022-09-03T06:16:25;3.50;;;1.67;;
23046;SDS011;11691;51.462;6.902;2022-09-03T06:18:51;2.45;;;1.55;;
23046;SDS011;11691;51.462;6.902;2022-09-03T06:21:18;3.83;;;1.38;;
23046;SDS011;11691;51.462;6.902;2022-09-03T06:23:47;3.00;;;1.30;;
23046;SDS011;11691;51.462;6.902;2022-09-03T06:26:17;3.63;;;1.73;;
23046;SDS011;11691;51.462;6.902;2022-09-03T06:28:44;4.97;;;1.77;;
23046;SDS011;11691;51.462;6.902;2022-09-03T06:31:12;3.17;;;1.52;;
23046;SDS011;11691;51.462;6.902;2022-09-03T06:33:39;2.55;;;1.35;;
23046;SDS011;11691;51.462;6.902;2022-09-03T06:36:07;2.92;;;1.40;;
23046;SDS011;11691;51.462;6.902;2022-09-03T06:38:35;2.22;;;1.35;;
23046;SDS011;11691;51.462;6.902;2022-09-03T06:41:02;3.88;;;1.50;;
23046;SDS011;11691;51.462;6.902;2022-09-03T06:43:29;3.47;;;1.38;;
23046;SDS011;11691;51.462;6.902;2022-09-03T06:45:57;2.15;;;1.35;;
23046;SDS011;11691;51.462;6.902;2022-09-03T06:48:24;2.90;;;1.50;;
23046;SDS011;11691;51.462;6.902;2022-09-03T06:50:57;2.85;;;1.08;;
23046;SDS011;11691;51.462;6.902;2022-09-03T06:53:27;2.35;;;1.50;;
23046;SDS011;11691;51.462;6.902;2022-09-03T06:55:55;2.45;;;1.70;;
23046;SDS011;11691;51.462;6.902;2022-09-03T06:58:21;2.83;;;1.30;;
23046;SDS011;11691;51.462;6.902;2022-09-03T07:00:47;2.05;;;1.30;;
23046;SDS011;11691;51.462;6.902;2022-09-03T07:03:14;2.58;;;1.42;;
23046;SDS011;11691;51.462;6.902;2022-09-03T07:05:41;2.00;;;1.20;;
23046;SDS011;11691;51.462;6.902;2022-09-03T07:08:08;2.05;;;1.10;;
23046;SDS011;11691;51.462;6.902;2022-09-03T07:10:37;2.97;;;1.30;;
23046;SDS011;11691;51.462;6.902;2022-09-03T07:13:03;4.00;;;1.25;;
23046;SDS011;11691;51.462;6.902;2022-09-03T07:15:33;5.18;;;1.50;;
23046;SDS011;11691;51.462;6.902;2022-09-03T07:17:58;2.28;;;1.30;;
23046;SDS011;11691;51.462;6.902;2022-09-03T07:20:25;4.97;;;1.60;;
23046;SDS011;11691;51.462;6.902;2022-09-03T07:22:54;2.95;;;1.45;;
23046;SDS011;11691;51.462;6.902;2022-09-03T07:25:21;5.78;;;1.75;;
23046;SDS011;11691;51.462;6.902;2022-09-03T07:27:47;5.35;;;1.40;;
23046;SDS011;11691;51.462;6.902;2022-09-03T07:30:15;4.22;;;1.30;;
23046;SDS011;11691;51.462;6.902;2022-09-03T07:32:42;6.95;;;1.42;;
23046;SDS011;11691;51.462;6.902;2022-09-03T07:35:08;2.78;;;1.30;;
23046;SDS011;11691;51.462;6.902;2022-09-03T07:37:34;13.38;;;1.40;;
23046;SDS011;11691;51.462;6.902;2022-09-03T07:40:01;5.40;;;1.60;;
23046;SDS011;11691;51.462;6.902;2022-09-03T07:42:27;3.22;;;1.30;;
23046;SDS011;11691;51.462;6.902;2022-09-03T07:44:55;3.42;;;1.50;;
23046;SDS011;11691;51.462;6.902;2022-09-03T07:47:22;4.75;;;1.40;;
23046;SDS011;11691;51.462;6.902;2022-09-03T07:49:50;3.38;;;1.30;;
23046;SDS011;11691;51.462;6.902;2022-09-03T07:52:16;10.02;;;2.17;;
23046;SDS011;11691;51.462;6.902;2022-09-03T07:54:42;2.88;;;1.23;;
23046;SDS011;11691;51.462;6.902;2022-09-03T07:57:08;3.83;;;1.30;;
23046;SDS011;11691;51.462;6.902;2022-09-03T07:59:34;2.97;;;1.20;;
23046;SDS011;11691;51.462;6.902;2022-09-03T08:02:01;3.75;;;1.27;;
23046;SDS011;11691;51.462;6.902;2022-09-03T08:04:28;4.47;;;1.30;;
23046;SDS011;11691;51.462;6.902;2022-09-03T08:06:56;3.60;;;1.17;;
23046;SDS011;11691;51.462;6.902;2022-09-03T08:09:23;2.50;;;1.38;;
23046;SDS011;11691;51.462;6.902;2022-09-03T08:11:49;5.40;;;1.25;;
23046;SDS011;11691;51.462;6.902;2022-09-03T08:14:15;1.95;;;0.90;;
23046;SDS011;11691;51.462;6.902;2022-09-03T08:16:43;4.95;;;1.40;;
23046;SDS011;11691;51.462;6.902;2022-09-03T08:19:11;2.95;;;1.20;;
23046;SDS011;11691;51.462;6.902;2022-09-03T08:21:38;3.08;;;1.40;;
23046;SDS011;11691;51.462;6.902;2022-09-03T08:24:06;5.03;;;1.30;;
23046;SDS011;11691;51.462;6.902;2022-09-03T08:26:33;2.20;;;1.40;;
23046;SDS011;11691;51.462;6.902;2022-09-03T08:29:00;3.90;;;1.33;;
23046;SDS011;11691;51.462;6.902;2022-09-03T08:31:27;1.83;;;1.00;;
23046;SDS011;11691;51.462;6.902;2022-09-03T08:33:54;4.25;;;1.30;;
23046;SDS011;11691;51.462;6.902;2022-09-03T08:36:25;3.22;;;0.90;;
23046;SDS011;11691;51.462;6.902;2022-09-03T08:38:52;1.73;;;1.30;;
23046;SDS011;11691;51.462;6.902;2022-09-03T08:46:54;2.20;;;1.05;;
23046;SDS011;11691;51.462;6.902;2022-09-03T08:49:25;4.63;;;1.50;;
23046;SDS011;11691;51.462;6.902;2022-09-03T08:52:22;2.47;;;1.05;;
23046;SDS011;11691;51.462;6.902;2022-09-03T08:58:10;1.40;;;0.80;;
23046;SDS011;11691;51.462;6.902;2022-09-03T09:00:46;1.40;;;0.80;;
23046;SDS011;11691;51.462;6.902;2022-09-03T09:05:55;2.53;;;0.77;;
23046;SDS011;11691;51.462;6.902;2022-09-03T09:08:36;1.00;;;0.70;;
23046;SDS011;11691;51.462;6.902;2022-09-03T09:14:10;5.13;;;1.02;;
23046;SDS011;11691;51.462;6.902;2022-09-03T09:17:13;1.45;;;0.93;;
23046;SDS011;11691;51.462;6.902;2022-09-03T09:19:45;2.25;;;0.70;;
23046;SDS011;11691;51.462;6.902;2022-09-03T09:22:20;2.03;;;0.70;;
23046;SDS011;11691;51.462;6.902;2022-09-03T09:24:48;1.15;;;0.70;;
23046;SDS011;11691;51.462;6.902;2022-09-03T09:27:16;1.27;;;1.00;;
23046;SDS011;11691;51.462;6.902;2022-09-03T09:29:43;2.53;;;0.70;;
23046;SDS011;11691;51.462;6.902;2022-09-03T09:32:12;2.55;;;1.00;;
23046;SDS011;11691;51.462;6.902;2022-09-03T09:34:39;4.25;;;1.30;;
23046;SDS011;11691;51.462;6.902;2022-09-03T09:37:09;5.60;;;1.10;;
23046;SDS011;11691;51.462;6.902;2022-09-03T09:39:35;3.50;;;0.90;;
23046;SDS011;11691;51.462;6.902;2022-09-03T09:42:06;2.38;;;0.90;;
23046;SDS011;11691;51.462;6.902;2022-09-03T09:44:39;3.35;;;0.95;;
23046;SDS011;11691;51.462;6.902;2022-09-03T09:47:06;2.25;;;1.08;;
23046;SDS011;11691;51.462;6.902;2022-09-03T09:49:36;1.92;;;0.95;;
23046;SDS011;11691;51.462;6.902;2022-09-03T09:52:15;5.57;;;1.00;;
23046;SDS011;11691;51.462;6.902;2022-09-03T09:54:42;4.60;;;1.10;;
23046;SDS011;11691;51.462;6.902;2022-09-03T09:57:14;3.22;;;1.08;;
23046;SDS011;11691;51.462;6.902;2022-09-03T09:59:44;1.92;;;1.20;;
23046;SDS011;11691;51.462;6.902;2022-09-03T10:02:12;1.30;;;0.70;;
23046;SDS011;11691;51.462;6.902;2022-09-03T10:04:57;2.80;;;0.85;;
23046;SDS011;11691;51.462;6.902;2022-09-03T10:07:27;1.48;;;0.90;;
23046;SDS011;11691;51.462;6.902;2022-09-03T10:10:04;2.17;;;0.90;;
23046;SDS011;11691;51.462;6.902;2022-09-03T10:12:35;2.67;;;1.00;;
23046;SDS011;11691;51.462;6.902;2022-09-03T10:15:24;3.20;;;0.98;;
23046;SDS011;11691;51.462;6.902;2022-09-03T10:23:21;4.45;;;1.38;;
23046;SDS011;11691;51.462;6.902;2022-09-03T10:28:20;2.63;;;1.05;;
23046;SDS011;11691;51.462;6.902;2022-09-03T10:33:17;4.22;;;1.00;;
23046;SDS011;11691;51.462;6.902;2022-09-03T10:35:52;3.92;;;0.90;;
23046;SDS011;11691;51.462;6.902;2022-09-03T10:38:32;2.75;;;1.02;;
23046;SDS011;11691;51.462;6.902;2022-09-03T10:46:09;4.28;;;1.00;;
23046;SDS011;11691;51.462;6.902;2022-09-03T10:48:52;3.83;;;1.00;;
23046;SDS011;11691;51.462;6.902;2022-09-03T10:51:26;1.98;;;1.20;;
23046;SDS011;11691;51.462;6.902;2022-09-03T10:59:58;4.50;;;0.95;;
23046;SDS011;11691;51.462;6.902;2022-09-03T11:05:59;2.50;;;1.13;;
23046;SDS011;11691;51.462;6.902;2022-09-03T11:08:43;3.63;;;1.00;;
23046;SDS011;11691;51.462;6.902;2022-09-03T11:11:22;3.72;;;1.40;;
23046;SDS011;11691;51.462;6.902;2022-09-03T11:14:06;1.85;;;1.10;;
23046;SDS011;11691;51.462;6.902;2022-09-03T11:16:37;5.38;;;1.20;;
23046;SDS011;11691;51.462;6.902;2022-09-03T11:19:08;1.60;;;1.08;;
23046;SDS011;11691;51.462;6.902;2022-09-03T11:21:44;2.30;;;1.23;;
23046;SDS011;11691;51.462;6.902;2022-09-03T11:26:38;1.20;;;1.10;;
23046;SDS011;11691;51.462;6.902;2022-09-03T11:29:10;2.03;;;1.30;;
23046;SDS011;11691;51.462;6.902;2022-09-03T11:36:50;2.50;;;1.23;;
23046;SDS011;11691;51.462;6.902;2022-09-03T11:39:23;2.45;;;1.23;;
23046;SDS011;11691;51.462;6.902;2022-09-03T11:41:57;2.38;;;1.00;;
23046;SDS011;11691;51.462;6.902;2022-09-03T11:44:34;4.30;;;1.20;;
23046;SDS011;11691;51.462;6.902;2022-09-03T11:47:01;2.03;;;1.02;;
23046;SDS011;11691;51.462;6.902;2022-09-03T11:49:48;2.72;;;1.00;;
23046;SDS011;11691;51.462;6.902;2022-09-03T11:52:24;1.80;;;1.00;;
23046;SDS011;11691;51.462;6.902;2022-09-03T11:54:50;2.78;;;1.10;;
23046;SDS011;11691;51.462;6.902;2022-09-03T11:57:21;2.28;;;1.00;;
23046;SDS011;11691;51.462;6.902;2022-09-03T12:02:35;5.85;;;0.80;;
23046;SDS011;11691;51.462;6.902;2022-09-03T12:08:32;2.40;;;1.15;;
23046;SDS011;11691;51.462;6.902;2022-09-03T12:13:46;4.28;;;1.05;;
23046;SDS011;11691;51.462;6.902;2022-09-03T12:18:45;1.80;;;0.85;;
23046;SDS011;11691;51.462;6.902;2022-09-03T12:21:15;2.40;;;0.95;;
23046;SDS011;11691;51.462;6.902;2022-09-03T12:23:45;3.40;;;1.10;;
23046;SDS011;11691;51.462;6.902;2022-09-03T12:26:17;1.63;;;1.05;;
23046;SDS011;11691;51.462;6.902;2022-09-03T12:28:48;2.25;;;1.20;;
23046;SDS011;11691;51.462;6.902;2022-09-03T12:33:52;2.33;;;1.40;;
23046;SDS011;11691;51.462;6.902;2022-09-03T12:36:21;1.10;;;1.00;;
23046;SDS011;11691;51.462;6.902;2022-09-03T12:38:47;3.00;;;1.00;;
23046;SDS011;11691;51.462;6.902;2022-09-03T12:43:50;2.88;;;1.10;;
23046;SDS011;11691;51.462;6.902;2022-09-03T12:46:18;2.00;;;1.27;;
23046;SDS011;11691;51.462;6.902;2022-09-03T12:48:53;4.55;;;1.08;;
23046;SDS011;11691;51.462;6.902;2022-09-03T12:51:20;2.85;;;1.08;;
23046;SDS011;11691;51.462;6.902;2022-09-03T12:53:46;4.05;;;1.20;;
23046;SDS011;11691;51.462;6.902;2022-09-03T12:56:15;3.75;;;1.52;;
23046;SDS011;11691;51.462;6.902;2022-09-03T12:58:47;2.58;;;1.10;;
23046;SDS011;11691;51.462;6.902;2022-09-03T13:01:17;3.17;;;1.10;;
23046;SDS011;11691;51.462;6.902;2022-09-03T13:03:54;1.60;;;1.23;;
23046;SDS011;11691;51.462;6.902;2022-09-03T13:06:23;3.53;;;0.95;;
23046;SDS011;11691;51.462;6.902;2022-09-03T13:08:56;2.85;;;1.00;;
23046;SDS011;11691;51.462;6.902;2022-09-03T13:11:25;2.58;;;1.13;;
23046;SDS011;11691;51.462;6.902;2022-09-03T13:13:59;1.65;;;1.10;;
23046;SDS011;11691;51.462;6.902;2022-09-03T13:16:36;1.98;;;1.10;;
23046;SDS011;11691;51.462;6.902;2022-09-03T13:27:21;1.83;;;1.10;;
23046;SDS011;11691;51.462;6.902;2022-09-03T13:30:08;2.78;;;1.00;;
23046;SDS011;11691;51.462;6.902;2022-09-03T13:32:48;1.73;;;1.10;;
23046;SDS011;11691;51.462;6.902;2022-09-03T13:35:36;2.55;;;1.20;;
23046;SDS011;11691;51.462;6.902;2022-09-03T13:38:06;1.85;;;1.17;;
23046;SDS011;11691;51.462;6.902;2022-09-03T13:41:53;1.88;;;1.00;;
23046;SDS011;11691;51.462;6.902;2022-09-03T13:43:54;1.08;;;0.90;;
23046;SDS011;11691;51.462;6.902;2022-09-03T13:48:56;3.63;;;1.05;;
23046;SDS011;11691;51.462;6.902;2022-09-03T13:51:57;1.90;;;1.00;;
23046;SDS011;11691;51.462;6.902;2022-09-03T13:54:33;2.22;;;1.15;;
23046;SDS011;11691;51.462;6.902;2022-09-03T14:02:15;1.40;;;1.30;;
23046;SDS011;11691;51.462;6.902;2022-09-03T14:05:04;3.20;;;1.23;;
23046;SDS011;11691;51.462;6.902;2022-09-03T14:13:12;1.20;;;1.10;;
23046;SDS011;11691;51.462;6.902;2022-09-03T14:15:47;2.08;;;1.23;;
23046;SDS011;11691;51.462;6.902;2022-09-03T14:21:04;3.95;;;1.40;;
23046;SDS011;11691;51.462;6.902;2022-09-03T14:23:53;1.83;;;1.10;;
23046;SDS011;11691;51.462;6.902;2022-09-03T14:26:28;3.28;;;1.20;;
23046;SDS011;11691;51.462;6.902;2022-09-03T14:29:01;1.30;;;1.17;;
23046;SDS011;11691;51.462;6.902;2022-09-03T14:34:12;2.63;;;1.35;;
23046;SDS011;11691;51.462;6.902;2022-09-03T14:42:01;2.17;;;1.42;;
23046;SDS011;11691;51.462;6.902;2022-09-03T14:47:34;2.65;;;1.60;;
23046;SDS011;11691;51.462;6.902;2022-09-03T14:50:13;2.17;;;1.45;;
23046;SDS011;11691;51.462;6.902;2022-09-03T14:55:51;2.45;;;1.58;;
23046;SDS011;11691;51.462;6.902;2022-09-03T15:05:51;2.10;;;1.38;;
23046;SDS011;11691;51.462;6.902;2022-09-03T15:10:47;3.20;;;1.73;;
23046;SDS011;11691;51.462;6.902;2022-09-03T15:13:16;2.22;;;1.50;;
23046;SDS011;11691;51.462;6.902;2022-09-03T15:18:42;4.43;;;1.73;;
23046;SDS011;11691;51.462;6.902;2022-09-03T15:24:11;3.53;;;1.65;;
23046;SDS011;11691;51.462;6.902;2022-09-03T15:27:15;2.05;;;1.70;;
23046;SDS011;11691;51.462;6.902;2022-09-03T15:30:17;3.03;;;1.50;;
23046;SDS011;11691;51.462;6.902;2022-09-03T15:37:47;1.67;;;1.35;;
23046;SDS011;11691;51.462;6.902;2022-09-03T15:42:59;2.38;;;1.45;;
23046;SDS011;11691;51.462;6.902;2022-09-03T15:48:45;2.80;;;1.83;;
23046;SDS011;11691;51.462;6.902;2022-09-03T15:57:32;2.78;;;1.52;;
23046;SDS011;11691;51.462;6.902;2022-09-03T15:59:50;2.17;;;1.50;;
23046;SDS011;11691;51.462;6.902;2022-09-03T16:05:20;1.83;;;1.60;;
23046;SDS011;11691;51.462;6.902;2022-09-03T16:10:38;2.25;;;1.70;;
23046;SDS011;11691;51.462;6.902;2022-09-03T16:15:59;2.60;;;1.50;;
23046;SDS011;11691;51.462;6.902;2022-09-03T16:18:28;2.80;;;1.70;;
23046;SDS011;11691;51.462;6.902;2022-09-03T16:21:06;2.13;;;1.75;;
23046;SDS011;11691;51.462;6.902;2022-09-03T16:23:41;3.00;;;2.10;;
23046;SDS011;11691;51.462;6.902;2022-09-03T16:29:08;4.97;;;2.80;;
23046;SDS011;11691;51.462;6.902;2022-09-03T16:39:47;5.07;;;2.53;;
23046;SDS011;11691;51.462;6.902;2022-09-03T16:42:21;3.03;;;2.22;;
23046;SDS011;11691;51.462;6.902;2022-09-03T16:45:05;2.75;;;2.45;;
23046;SDS011;11691;51.462;6.902;2022-09-03T16:58:48;2.95;;;2.08;;
23046;SDS011;11691;51.462;6.902;2022-09-03T17:04:21;4.13;;;2.00;;
23046;SDS011;11691;51.462;6.902;2022-09-03T17:09:42;5.00;;;1.98;;
23046;SDS011;11691;51.462;6.902;2022-09-03T17:12:27;3.35;;;1.85;;
23046;SDS011;11691;51.462;6.902;2022-09-03T17:15:11;1.70;;;1.55;;
23046;SDS011;11691;51.462;6.902;2022-09-03T17:26:06;2.58;;;2.10;;
23046;SDS011;11691;51.462;6.902;2022-09-03T17:33:37;7.13;;;2.30;;
23046;SDS011;11691;51.462;6.902;2022-09-03T17:36:13;2.45;;;1.88;;
23046;SDS011;11691;51.462;6.902;2022-09-03T17:49:22;2.50;;;2.10;;
23046;SDS011;11691;51.462;6.902;2022-09-03T17:52:03;3.40;;;2.00;;
23046;SDS011;11691;51.462;6.902;2022-09-03T18:02:14;2.90;;;2.10;;
23046;SDS011;11691;51.462;6.902;2022-09-03T18:04:47;2.70;;;2.17;;
23046;SDS011;11691;51.462;6.902;2022-09-03T18:15:14;3.85;;;2.38;;
23046;SDS011;11691;51.462;6.902;2022-09-03T18:20:27;3.25;;;2.05;;
23046;SDS011;11691;51.462;6.902;2022-09-03T18:23:28;2.90;;;1.90;;
23046;SDS011;11691;51.462;6.902;2022-09-03T18:26:21;3.40;;;2.35;;
23046;SDS011;11691;51.462;6.902;2022-09-03T18:29:12;3.13;;;2.10;;
23046;SDS011;11691;51.462;6.902;2022-09-03T18:31:59;3.60;;;2.70;;
23046;SDS011;11691;51.462;6.902;2022-09-03T18:34:44;3.78;;;2.30;;
23046;SDS011;11691;51.462;6.902;2022-09-03T18:37:29;3.00;;;2.40;;
23046;SDS011;11691;51.462;6.902;2022-09-03T18:40:25;5.40;;;2.20;;
23046;SDS011;11691;51.462;6.902;2022-09-03T18:46:36;2.47;;;1.77;;
23046;SDS011;11691;51.462;6.902;2022-09-03T18:52:29;3.30;;;2.28;;
23046;SDS011;11691;51.462;6.902;2022-09-03T18:55:37;3.55;;;1.88;;
23046;SDS011;11691;51.462;6.902;2022-09-03T19:07:11;2.65;;;1.92;;
23046;SDS011;11691;51.462;6.902;2022-09-03T19:10:24;3.88;;;2.17;;
23046;SDS011;11691;51.462;6.902;2022-09-03T19:16:20;3.33;;;2.80;;
23046;SDS011;11691;51.462;6.902;2022-09-03T19:19:16;4.53;;;2.33;;
23046;SDS011;11691;51.462;6.902;2022-09-03T19:22:07;5.20;;;2.67;;
23046;SDS011;11691;51.462;6.902;2022-09-03T19:24:55;2.90;;;2.10;;
23046;SDS011;11691;51.462;6.902;2022-09-03T19:28:05;3.33;;;2.03;;
23046;SDS011;11691;51.462;6.902;2022-09-03T19:33:58;3.90;;;2.70;;
23046;SDS011;11691;51.462;6.902;2022-09-03T19:51:21;5.43;;;2.47;;
23046;SDS011;11691;51.462;6.902;2022-09-03T19:54:27;2.60;;;1.70;;
23046;SDS011;11691;51.462;6.902;2022-09-03T19:57:13;2.65;;;1.88;;
23046;SDS011;11691;51.462;6.902;2022-09-03T19:59:59;2.75;;;1.50;;
23046;SDS011;11691;51.462;6.902;2022-09-03T20:02:47;2.30;;;1.48;;
23046;SDS011;11691;51.462;6.902;2022-09-03T20:05:31;2.88;;;1.45;;
23046;SDS011;11691;51.462;6.902;2022-09-03T20:08:19;1.92;;;1.60;;
23046;SDS011;11691;51.462;6.902;2022-09-03T20:11:04;2.00;;;1.15;;
23046;SDS011;11691;51.462;6.902;2022-09-03T20:13:37;3.75;;;1.73;;